Time;durP1;ratioP1;P1;durP2;ratioP2;P2;SDS_P1;SDS_P2;PMS_P1;PMS_P2;Temp;Humidity;BMP_temperature;BMP_pressure;BME280_temperature;BME280_humidity;BME280_pressure;Samples;Min_cycle;Max_cycle;Signal;HPM_P1;HPM_P2
2023/11/06 00:00:16;;;;;;;7.20;2.90;;;;;;;14.93;67.40;98422.48;105559;1253;60489;-56
2023/11/06 00:02:45;;;;;;;5.70;2.70;;;;;;;14.90;67.45;98419.98;107258;1252;65424;-56
2023/11/06 00:05:13;;;;;;;5.20;3.10;;;;;;;14.88;67.47;98425.14;105990;1252;60443;-55
2023/11/06 00:07:41;;;;;;;6.00;2.80;;;;;;;14.91;67.59;98429.39;105847;1255;62440;-56
2023/11/06 00:10:09;;;;;;;7.00;2.50;;;;;;;14.94;67.59;98433.55;105679;1254;60452;-55
2023/11/06 00:12:37;;;;;;;5.30;2.90;;;;;;;14.95;67.55;98437.02;105398;1259;60546;-55
2023/11/06 00:15:06;;;;;;;5.90;2.70;;;;;;;14.97;67.68;98431.92;105406;1254;64929;-55
2023/11/06 00:17:33;;;;;;;6.40;2.60;;;;;;;14.97;67.86;98425.95;105424;1258;61329;-53
2023/11/06 00:20:03;;;;;;;5.40;2.90;;;;;;;14.97;67.67;98424.00;105729;1254;63857;-54
2023/11/06 00:22:31;;;;;;;6.20;2.80;;;;;;;14.97;67.67;98426.73;105909;1258;60485;-55
2023/11/06 00:24:58;;;;;;;8.40;2.90;;;;;;;14.97;67.61;98416.58;105956;1254;60410;-55
2023/11/06 00:27:26;;;;;;;4.70;2.20;;;;;;;14.96;67.48;98408.75;105990;1257;64909;-57
2023/11/06 00:29:53;;;;;;;7.10;3.00;;;;;;;14.96;67.67;98407.52;105030;1254;61294;-55
2023/11/06 00:32:21;;;;;;;7.70;2.70;;;;;;;14.93;67.62;98416.02;105540;1255;64286;-57
2023/11/06 00:34:49;;;;;;;5.10;2.60;;;;;;;14.83;67.72;98416.08;105757;1257;60432;-55
2023/11/06 00:37:17;;;;;;;5.40;2.80;;;;;;;14.71;67.86;98413.77;105229;1254;60552;-55
2023/11/06 00:39:45;;;;;;;6.60;2.60;;;;;;;14.65;68.10;98421.02;105271;1257;64879;-55
2023/11/06 00:42:12;;;;;;;6.10;2.90;;;;;;;14.64;68.21;98425.50;105253;1258;60509;-55
2023/11/06 00:44:40;;;;;;;5.50;2.10;;;;;;;14.66;68.17;98420.02;105223;1257;64066;-55
2023/11/06 00:47:07;;;;;;;5.30;2.60;;;;;;;14.67;68.32;98421.11;105205;1253;60725;-55
2023/11/06 00:49:35;;;;;;;6.70;3.00;;;;;;;14.66;68.42;98419.39;105247;1254;60482;-54
2023/11/06 00:52:03;;;;;;;5.70;2.80;;;;;;;14.62;68.47;98416.44;105444;1254;64946;-55
2023/11/06 00:54:31;;;;;;;5.40;2.40;;;;;;;14.57;68.44;98417.13;105267;1257;61414;-56
2023/11/06 00:57:00;;;;;;;6.60;2.80;;;;;;;14.54;68.42;98418.17;105260;1254;65805;-55
2023/11/06 00:59:28;;;;;;;4.90;2.40;;;;;;;14.52;68.49;98419.86;106044;1254;60635;-55
2023/11/06 01:01:55;;;;;;;5.70;2.00;;;;;;;14.50;68.52;98423.89;106040;1254;60323;-55
2023/11/06 01:04:23;;;;;;;5.70;2.30;;;;;;;14.51;68.57;98427.04;105793;1256;64989;-55
2023/11/06 01:06:52;;;;;;;6.60;2.30;;;;;;;14.50;68.64;98425.73;105738;1254;60466;-56
2023/11/06 01:09:19;;;;;;;5.40;2.50;;;;;;;14.47;68.69;98432.27;105458;1257;63741;-56
2023/11/06 01:11:48;;;;;;;5.90;2.20;;;;;;;14.40;68.63;98433.85;106305;1254;60408;-54
2023/11/06 01:14:16;;;;;;;5.40;2.40;;;;;;;14.37;68.78;98438.73;105720;1258;60470;-56
2023/11/06 01:16:43;;;;;;;5.20;2.40;;;;;;;14.36;68.74;98437.25;106739;1254;65009;-55
2023/11/06 01:19:12;;;;;;;4.60;2.30;;;;;;;14.36;68.87;98442.38;105338;1256;61439;-54
2023/11/06 01:21:40;;;;;;;4.90;2.40;;;;;;;14.37;68.80;98440.84;105349;1258;62700;-55
2023/11/06 01:24:09;;;;;;;6.30;2.10;;;;;;;14.36;68.87;98441.48;105347;1253;60608;-56
2023/11/06 01:26:42;;;;;;;7.90;2.10;;;;;;;14.31;68.89;98449.27;106023;1253;60486;-55
2023/11/06 01:29:11;;;;;;;5.60;1.90;;;;;;;14.25;68.89;98449.35;105976;1252;63679;-56
2023/11/06 01:31:39;;;;;;;5.40;2.50;;;;;;;14.23;68.80;98455.41;106558;1253;61507;-57
2023/11/06 01:34:06;;;;;;;5.50;2.40;;;;;;;14.23;68.60;98459.79;105113;1259;71751;-56
2023/11/06 01:36:34;;;;;;;5.70;2.60;;;;;;;14.23;68.62;98463.84;105567;1257;60550;-56
2023/11/06 01:39:02;;;;;;;5.60;2.60;;;;;;;14.24;68.53;98467.26;105194;1258;64576;-59
2023/11/06 01:41:30;;;;;;;6.50;2.40;;;;;;;14.22;68.52;98470.86;105292;1254;64860;-55
2023/11/06 01:43:58;;;;;;;5.30;2.40;;;;;;;14.18;68.50;98476.25;105997;1253;61950;-55
2023/11/06 01:46:26;;;;;;;7.60;2.60;;;;;;;14.14;68.49;98482.98;106702;1253;63779;-55
2023/11/06 01:48:53;;;;;;;5.10;2.30;;;;;;;14.13;68.44;98483.25;107023;1253;59253;-55
2023/11/06 01:51:21;;;;;;;6.20;2.70;;;;;;;14.15;68.33;98480.90;106107;1254;60529;-55
2023/11/06 01:53:49;;;;;;;8.10;2.10;;;;;;;14.17;68.24;98479.75;106365;1252;64927;-55
2023/11/06 01:56:17;;;;;;;4.80;2.10;;;;;;;14.20;68.21;98485.38;105245;1253;60563;-56
2023/11/06 01:58:45;;;;;;;7.20;2.80;;;;;;;14.19;68.19;98487.36;105893;1254;63685;-54
2023/11/06 02:01:13;;;;;;;7.70;3.00;;;;;;;14.14;68.17;98487.73;106122;1258;60455;-57
2023/11/06 02:03:40;;;;;;;5.40;2.80;;;;;;;14.10;68.08;98488.39;105247;1254;60542;-55
2023/11/06 02:06:08;;;;;;;7.30;2.20;;;;;;;14.11;68.01;98489.10;106351;1252;63707;-56
2023/11/06 02:08:36;;;;;;;5.10;2.40;;;;;;;14.12;67.83;98489.19;105957;1257;60175;-53
2023/11/06 02:11:04;;;;;;;6.40;2.90;;;;;;;14.13;67.70;98489.84;106460;1254;63729;-55
2023/11/06 02:13:31;;;;;;;7.30;2.80;;;;;;;14.11;67.54;98494.64;106159;1254;60526;-54
2023/11/06 02:15:59;;;;;;;6.60;3.10;;;;;;;14.05;67.35;98501.74;102819;1254;3229135;-55
2023/11/06 02:20:09;;;;;;;5.20;2.50;;;;;;;13.76;68.18;98508.65;102587;1291;601051;-57
2023/11/06 02:22:40;;;;;;;5.90;2.30;;;;;;;13.92;67.32;98515.31;104440;1272;59718;-55
2023/11/06 02:25:08;;;;;;;5.30;2.20;;;;;;;13.89;67.33;98517.89;104799;1271;59302;-55
2023/11/06 02:27:37;;;;;;;4.90;2.20;;;;;;;13.88;67.40;98519.21;104394;1275;63261;-55
2023/11/06 02:30:05;;;;;;;4.40;2.10;;;;;;;13.85;67.40;98520.09;105164;1269;61878;-55
2023/11/06 02:32:35;;;;;;;6.80;2.60;;;;;;;13.79;67.55;98516.16;103814;1266;3400469;-58
2023/11/06 02:35:07;;;;;;;6.10;2.50;;;;;;;13.75;67.47;98528.53;104611;1268;59359;-55
2023/11/06 02:37:35;;;;;;;7.10;2.80;;;;;;;13.74;67.29;98535.16;104995;1266;59347;-55
2023/11/06 02:40:06;;;;;;;7.70;2.40;;;;;;;13.70;67.29;98540.89;104819;1265;59972;-56
2023/11/06 02:42:36;;;;;;;6.30;2.40;;;;;;;13.67;67.28;98549.03;105029;1266;62361;-54
2023/11/06 02:45:05;;;;;;;6.40;3.00;;;;;;;13.61;67.32;98551.69;107244;1266;61898;-54
2023/11/06 02:47:33;;;;;;;5.70;2.50;;;;;;;13.54;67.42;98555.20;104903;1266;63949;-55
2023/11/06 02:50:01;;;;;;;7.20;2.40;;;;;;;13.48;67.39;98554.77;105325;1266;59873;-54
2023/11/06 02:52:28;;;;;;;5.80;2.10;;;;;;;13.45;67.47;98552.29;105689;1264;59663;-54
2023/11/06 02:54:56;;;;;;;5.80;2.60;;;;;;;13.45;67.53;98553.54;104879;1265;62909;-55
2023/11/06 02:57:23;;;;;;;4.80;2.50;;;;;;;13.45;67.49;98553.02;104498;1269;60305;-54
2023/11/06 02:59:51;;;;;;;8.70;2.40;;;;;;;13.42;67.37;98554.00;105676;1265;62639;-55
2023/11/06 03:02:18;;;;;;;5.60;2.30;;;;;;;13.38;67.40;98559.45;104464;1266;59670;-58
2023/11/06 03:04:46;;;;;;;5.20;2.40;;;;;;;13.34;67.53;98568.51;105894;1267;59260;-55
2023/11/06 03:07:14;;;;;;;6.10;2.90;;;;;;;13.33;67.24;98577.66;105202;1264;64115;-57
2023/11/06 03:09:42;;;;;;;6.40;2.70;;;;;;;13.32;67.22;98582.50;105213;1268;61367;-56
2023/11/06 03:12:09;;;;;;;6.70;2.50;;;;;;;13.31;67.33;98588.16;105038;1268;63732;-55
2023/11/06 03:14:37;;;;;;;5.60;2.50;;;;;;;13.28;67.37;98594.78;104560;1266;59652;-56
2023/11/06 03:17:05;;;;;;;5.00;2.70;;;;;;;13.23;67.33;98607.88;105108;1265;59835;-55
2023/11/06 03:19:34;;;;;;;6.70;3.00;;;;;;;13.16;67.51;98606.37;105131;1268;72153;-56
2023/11/06 03:22:01;;;;;;;8.00;2.80;;;;;;;13.12;67.45;98610.17;104264;1266;61368;-56
2023/11/06 03:24:29;;;;;;;6.10;3.00;;;;;;;13.11;67.39;98612.11;104521;1269;64190;-55
2023/11/06 03:26:56;;;;;;;5.60;2.70;;;;;;;13.09;67.47;98613.41;105038;1264;60991;-55
2023/11/06 03:29:24;;;;;;;5.90;2.60;;;;;;;13.07;67.63;98617.73;104611;1269;59615;-55
2023/11/06 03:31:52;;;;;;;7.40;3.60;;;;;;;13.03;67.84;98621.17;104951;1265;64615;-55
2023/11/06 03:34:19;;;;;;;5.80;3.10;;;;;;;12.99;67.83;98627.98;104513;1266;61339;-55
2023/11/06 03:36:47;;;;;;;6.50;2.90;;;;;;;12.96;67.77;98632.55;104573;1266;63807;-55
2023/11/06 03:39:15;;;;;;;8.40;2.80;;;;;;;12.93;67.80;98635.83;106133;1271;59590;-55
2023/11/06 03:41:43;;;;;;;7.50;3.00;;;;;;;12.92;67.74;98632.80;104745;1268;59252;-55
2023/11/06 03:44:11;;;;;;;5.40;2.70;;;;;;;12.90;67.85;98627.58;105367;1268;64146;-57
2023/11/06 03:46:39;;;;;;;6.60;3.40;;;;;;;12.88;67.91;98634.39;104790;1269;60096;-55
2023/11/06 03:49:06;;;;;;;5.60;2.50;;;;;;;12.83;67.93;98640.91;105548;1266;62560;-54
2023/11/06 03:51:34;;;;;;;6.50;3.00;;;;;;;12.81;67.91;98642.02;105225;1266;59768;-56
2023/11/06 03:54:02;;;;;;;6.80;2.80;;;;;;;12.81;67.92;98644.05;104429;1264;59772;-55
2023/11/06 03:56:29;;;;;;;10.40;4.00;;;;;;;12.84;67.96;98648.35;104537;1269;64083;-55
2023/11/06 03:58:57;;;;;;;5.70;3.40;;;;;;;12.86;67.82;98648.34;104598;1269;62021;-56
2023/11/06 04:01:26;;;;;;;7.10;3.50;;;;;;;12.85;67.83;98652.70;104602;1269;64225;-57
2023/11/06 04:03:56;;;;;;;9.70;3.40;;;;;;;12.82;67.82;98656.52;104647;1269;59705;-54
2023/11/06 04:06:23;;;;;;;6.10;3.30;;;;;;;12.77;67.76;98660.72;104861;1268;59597;-55
2023/11/06 04:08:51;;;;;;;6.00;3.00;;;;;;;12.72;67.74;98664.36;104733;1266;64173;-55
2023/11/06 04:11:18;;;;;;;5.60;2.50;;;;;;;12.70;67.77;98670.21;104492;1268;61313;-55
2023/11/06 04:13:46;;;;;;;5.90;3.00;;;;;;;12.70;67.68;98680.28;104679;1269;63762;-55
2023/11/06 04:16:14;;;;;;;6.80;3.20;;;;;;;12.69;67.57;98684.55;104904;1262;60328;-55
2023/11/06 04:18:41;;;;;;;5.60;2.70;;;;;;;12.66;67.69;98692.09;105758;1262;59756;-55
2023/11/06 04:21:09;;;;;;;6.50;3.20;;;;;;;12.61;67.78;98699.02;106050;1261;64285;-54
2023/11/06 04:23:37;;;;;;;5.50;2.40;;;;;;;12.57;67.72;98702.33;105129;1262;61361;-55
2023/11/06 04:26:04;;;;;;;5.90;2.90;;;;;;;12.56;67.79;98702.55;105549;1262;63780;-55
2023/11/06 04:28:32;;;;;;;5.80;2.50;;;;;;;12.59;67.70;98702.80;105106;1262;59738;-57
2023/11/06 04:30:59;;;;;;;6.70;2.90;;;;;;;12.60;67.61;98712.34;105386;1262;59913;-55
2023/11/06 04:33:27;;;;;;;6.60;2.50;;;;;;;12.61;67.39;98713.88;105343;1262;64651;-57
2023/11/06 04:35:55;;;;;;;7.30;2.80;;;;;;;12.58;67.47;98720.45;104975;1258;61315;-57
2023/11/06 04:38:22;;;;;;;5.90;3.00;;;;;;;12.57;67.43;98719.00;105401;1263;63922;-57
2023/11/06 04:40:51;;;;;;;4.40;2.00;;;;;;;12.56;67.30;98732.05;105050;1262;59732;-58
2023/11/06 04:43:19;;;;;;;7.90;2.10;;;;;;;12.55;67.27;98736.34;105325;1259;60092;-54
2023/11/06 04:45:46;;;;;;;5.70;2.70;;;;;;;12.56;67.31;98742.01;105025;1263;64151;-54
2023/11/06 04:48:14;;;;;;;5.80;2.80;;;;;;;12.58;67.16;98743.94;105491;1262;61367;-54
2023/11/06 04:50:42;;;;;;;6.00;2.80;;;;;;;12.57;67.00;98741.94;105560;1258;64217;-54
2023/11/06 04:53:10;;;;;;;6.50;3.20;;;;;;;12.53;67.10;98749.55;105692;1259;59756;-56
2023/11/06 04:55:37;;;;;;;5.30;2.50;;;;;;;12.47;66.96;98758.30;105104;1262;59598;-54
2023/11/06 04:58:05;;;;;;;5.50;2.10;;;;;;;12.39;66.94;98763.21;104966;1266;62970;-54
2023/11/06 05:00:33;;;;;;;5.50;2.60;;;;;;;12.35;66.97;98767.27;105010;1263;61553;-56
2023/11/06 05:03:00;;;;;;;4.80;2.20;;;;;;;12.33;66.98;98772.91;105814;1260;63734;-55
2023/11/06 05:05:28;;;;;;;6.60;2.40;;;;;;;12.33;66.94;98780.96;105184;1262;59734;-55
2023/11/06 05:07:56;;;;;;;4.90;2.20;;;;;;;12.33;67.01;98788.37;105087;1259;59759;-57
2023/11/06 05:10:24;;;;;;;5.80;2.10;;;;;;;12.32;66.91;98793.41;105281;1262;64168;-55
2023/11/06 05:12:51;;;;;;;6.10;1.80;;;;;;;12.30;66.80;98801.77;105623;1262;61338;-56
2023/11/06 05:15:19;;;;;;;5.50;2.00;;;;;;;12.27;66.63;98803.34;104893;1256;63771;-54
2023/11/06 05:17:47;;;;;;;6.20;3.10;;;;;;;12.28;66.55;98806.98;105527;1260;59825;-54
2023/11/06 05:20:16;;;;;;;10.80;2.90;;;;;;;12.29;66.56;98809.41;105004;1261;60337;-54
2023/11/06 05:22:44;;;;;;;6.80;2.20;;;;;;;12.32;66.41;98817.31;105470;1257;64155;-56
2023/11/06 05:25:12;;;;;;;7.80;2.20;;;;;;;12.33;66.28;98822.50;106363;1260;61886;-57
2023/11/06 05:27:39;;;;;;;5.50;2.20;;;;;;;12.31;66.21;98827.45;105150;1258;62439;-55
2023/11/06 05:30:09;;;;;;;5.30;2.70;;;;;;;12.30;66.09;98831.16;104974;1256;59837;-55
2023/11/06 05:32:37;;;;;;;4.40;1.80;;;;;;;12.27;66.29;98836.17;106619;1257;59680;-56
2023/11/06 05:35:06;;;;;;;5.70;1.90;;;;;;;12.31;66.12;98836.65;104969;1267;64107;-57
2023/11/06 05:37:33;;;;;;;4.60;1.80;;;;;;;12.37;65.95;98839.95;106309;1260;61359;-56
2023/11/06 05:40:01;;;;;;;3.90;1.70;;;;;;;12.44;65.52;98852.02;105168;1260;63685;-58
2023/11/06 05:42:30;;;;;;;5.60;2.10;;;;;;;12.46;65.19;98860.45;105343;1260;60420;-55
2023/11/06 05:44:57;;;;;;;5.20;1.90;;;;;;;12.43;65.17;98860.56;105809;1255;59676;-55
2023/11/06 05:47:25;;;;;;;5.90;1.80;;;;;;;12.42;65.05;98863.95;105176;1261;64131;-55
2023/11/06 05:49:53;;;;;;;4.40;1.70;;;;;;;12.40;65.03;98862.20;105143;1261;61327;-54
2023/11/06 05:52:21;;;;;;;4.30;1.50;;;;;;;12.42;65.09;98860.17;105204;1259;62481;-54
2023/11/06 05:54:49;;;;;;;6.00;2.00;;;;;;;12.48;64.98;98866.71;105747;1257;59729;-57
2023/11/06 05:57:17;;;;;;;4.50;1.80;;;;;;;12.56;64.72;98876.10;105659;1257;59647;-56
2023/11/06 05:59:44;;;;;;;5.10;1.90;;;;;;;12.59;64.58;98880.30;106417;1256;63249;-54
2023/11/06 06:02:12;;;;;;;5.20;1.90;;;;;;;12.61;64.45;98881.98;105615;1260;61791;-48
2023/11/06 06:04:40;;;;;;;4.50;1.80;;;;;;;12.63;64.37;98887.35;105839;1260;62598;-52
2023/11/06 06:07:08;;;;;;;3.90;1.60;;;;;;;12.66;64.21;98891.13;104976;1258;59731;-55
2023/11/06 06:09:37;;;;;;;4.60;1.90;;;;;;;12.72;64.22;98888.73;107534;1257;59683;-58
2023/11/06 06:12:05;;;;;;;4.80;2.10;;;;;;;12.80;63.84;98891.65;105229;1258;64637;-57
2023/11/06 06:14:33;;;;;;;3.80;1.50;;;;;;;12.85;63.58;98894.95;108979;1256;61491;-55
2023/11/06 06:17:01;;;;;;;4.50;1.90;;;;;;;12.88;63.34;98898.66;105244;1261;62649;-54
2023/11/06 06:19:29;;;;;;;5.30;1.90;;;;;;;12.91;63.24;98904.55;105468;1256;60032;-55
2023/11/06 06:21:57;;;;;;;3.80;1.90;;;;;;;12.91;63.17;98910.62;105324;1257;59766;-56
2023/11/06 06:24:25;;;;;;;4.00;1.60;;;;;;;12.92;63.05;98910.95;106071;1260;63012;-56
2023/11/06 06:26:52;;;;;;;3.80;1.50;;;;;;;12.94;62.97;98910.23;106657;1261;61304;-56
2023/11/06 06:29:20;;;;;;;3.80;1.40;;;;;;;13.00;62.87;98916.15;105149;1256;63775;-55
2023/11/06 06:31:50;;;;;;;5.10;1.50;;;;;;;13.06;62.62;98924.30;105334;1257;61400;-56
2023/11/06 06:34:18;;;;;;;5.10;1.90;;;;;;;13.09;62.44;98920.02;106005;1260;60357;-55
2023/11/06 06:36:46;;;;;;;5.60;1.40;;;;;;;13.11;62.31;98928.92;106195;1256;64971;-55
2023/11/06 06:39:14;;;;;;;5.60;1.90;;;;;;;13.11;62.15;98933.71;105201;1259;61928;-57
2023/11/06 06:41:41;;;;;;;4.10;1.60;;;;;;;13.11;62.28;98935.36;105667;1258;63744;-55
2023/11/06 06:44:09;;;;;;;4.40;1.70;;;;;;;13.10;62.10;98935.46;105025;1256;60508;-56
2023/11/06 06:46:36;;;;;;;4.30;1.30;;;;;;;13.14;61.79;98939.90;105089;1256;60383;-55
2023/11/06 06:49:04;;;;;;;6.40;1.70;;;;;;;13.20;61.73;98939.16;105637;1257;64915;-54
2023/11/06 06:51:32;;;;;;;4.40;1.60;;;;;;;13.27;61.43;98934.33;105329;1259;60424;-54
2023/11/06 06:53:59;;;;;;;4.70;1.60;;;;;;;13.32;61.25;98939.34;106414;1258;62812;-54
2023/11/06 06:56:27;;;;;;;3.90;1.60;;;;;;;13.35;61.23;98939.95;105413;1260;60543;-55
2023/11/06 06:58:55;;;;;;;4.00;1.80;;;;;;;13.40;61.06;98940.70;105164;1261;60502;-55
2023/11/06 07:01:22;;;;;;;4.10;1.90;;;;;;;13.43;61.17;98942.24;105837;1258;72945;-55
2023/11/06 07:03:50;;;;;;;4.00;1.60;;;;;;;13.48;61.31;98938.14;106650;1258;62184;-51
2023/11/06 07:06:19;;;;;;;4.90;1.80;;;;;;;13.59;61.29;98937.45;105305;1260;64325;-49
2023/11/06 07:08:55;;;;;;;4.30;1.50;;;;;;;13.72;60.87;98943.48;105359;1260;60483;-56
2023/11/06 07:11:23;;;;;;;5.40;1.70;;;;;;;13.82;60.61;98943.97;105563;1258;60543;-56
2023/11/06 07:13:51;;;;;;;4.50;1.80;;;;;;;13.89;60.62;98946.29;106292;1257;63700;-53
2023/11/06 07:16:19;;;;;;;4.50;1.60;;;;;;;13.96;60.17;98952.21;108799;1255;60209;-51
2023/11/06 07:18:47;;;;;;;4.70;1.90;;;;;;;14.00;59.83;98961.66;105049;1258;62452;-52
2023/11/06 07:21:17;;;;;;;5.00;2.00;;;;;;;14.03;59.71;98963.95;105956;1256;60426;-51
2023/11/06 07:23:44;;;;;;;3.50;1.50;;;;;;;14.07;59.69;98964.45;105011;1260;60355;-54
2023/11/06 07:26:12;;;;;;;4.60;1.50;;;;;;;14.14;59.87;98968.98;107204;1257;64936;-55
2023/11/06 07:28:39;;;;;;;4.60;1.60;;;;;;;14.24;59.46;98973.10;109003;1256;60241;-56
2023/11/06 07:31:07;;;;;;;3.90;1.50;;;;;;;14.33;58.74;98972.71;108968;1257;64298;-56
2023/11/06 07:33:34;;;;;;;3.90;1.60;;;;;;;14.42;58.22;98970.98;108917;1257;58466;-55
2023/11/06 07:36:02;;;;;;;4.50;1.80;;;;;;;14.47;58.12;98971.80;105974;1257;60555;-53
2023/11/06 07:38:31;;;;;;;3.90;1.60;;;;;;;14.51;57.96;98976.29;108972;1257;63678;-48
2023/11/06 07:40:58;;;;;;;4.00;1.30;;;;;;;14.57;58.19;98971.98;108863;1257;60282;-48
2023/11/06 07:43:26;;;;;;;5.00;1.90;;;;;;;14.65;58.19;98972.67;108895;1256;63959;-51
2023/11/06 07:45:53;;;;;;;5.30;1.50;;;;;;;14.73;57.54;98977.05;108884;1257;58247;-52
2023/11/06 07:48:22;;;;;;;4.70;1.30;;;;;;;14.79;57.32;98981.20;108950;1257;58607;-52
2023/11/06 07:50:50;;;;;;;3.10;1.20;;;;;;;14.90;56.80;98986.27;108902;1255;64876;-54
2023/11/06 07:53:17;;;;;;;3.30;1.20;;;;;;;15.00;56.05;98988.80;108933;1256;60126;-55
2023/11/06 07:55:45;;;;;;;6.40;1.60;;;;;;;15.08;55.51;98986.98;108936;1257;63671;-53
2023/11/06 07:58:13;;;;;;;4.60;1.30;;;;;;;15.13;55.14;98999.22;108871;1255;58874;-55
2023/11/06 08:00:41;;;;;;;3.30;1.30;;;;;;;15.18;54.92;98998.73;108908;1260;59148;-51
2023/11/06 08:03:16;;;;;;;4.50;1.40;;;;;;;15.22;54.51;99003.80;108058;1254;64458;-52
2023/11/06 08:05:44;;;;;;;4.00;1.40;;;;;;;15.25;54.61;99004.08;105031;1260;61447;-52
2023/11/06 08:08:12;;;;;;;3.70;1.30;;;;;;;15.28;54.32;99004.33;106810;1254;63858;-48
2023/11/06 08:10:40;;;;;;;3.30;1.30;;;;;;;15.29;53.90;99003.29;105168;1259;60523;-45
2023/11/06 08:13:07;;;;;;;4.50;1.30;;;;;;;15.28;53.82;99004.66;106061;1254;61204;-54
2023/11/06 08:15:35;;;;;;;4.40;1.20;;;;;;;15.26;53.59;99005.64;105403;1255;63706;-54
2023/11/06 08:18:02;;;;;;;3.00;1.00;;;;;;;15.26;53.71;99014.48;104910;1259;61358;-56
2023/11/06 08:20:31;;;;;;;3.30;1.30;;;;;;;15.25;53.14;99017.95;106884;1254;67259;-54
2023/11/06 08:22:59;;;;;;;3.30;1.10;;;;;;;15.23;53.05;99021.48;105098;1260;60575;-55
2023/11/06 08:25:27;;;;;;;3.70;1.10;;;;;;;15.21;52.85;99032.20;107730;1254;60566;-56
2023/11/06 08:27:55;;;;;;;3.40;1.00;;;;;;;15.21;53.32;99025.48;105162;1254;65532;-55
2023/11/06 08:30:23;;;;;;;3.20;1.20;;;;;;;15.22;53.67;99027.38;108043;1254;61325;-54
2023/11/06 08:32:51;;;;;;;3.90;1.20;;;;;;;15.27;53.31;99044.88;105706;1254;73108;-55
2023/11/06 08:35:19;;;;;;;3.10;1.40;;;;;;;15.28;53.10;99047.71;107301;1254;60463;-55
2023/11/06 08:37:47;;;;;;;4.10;1.40;;;;;;;15.30;53.17;99048.70;104993;1258;60521;-55
2023/11/06 08:40:17;;;;;;;3.60;1.20;;;;;;;15.29;52.91;99051.38;105700;1254;63631;-52
2023/11/06 08:42:45;;;;;;;6.00;1.30;;;;;;;15.30;53.32;99053.58;106839;1253;61683;-51
2023/11/06 08:45:12;;;;;;;5.20;1.40;;;;;;;15.34;53.56;99046.21;106421;1259;75544;-55
2023/11/06 08:47:40;;;;;;;4.50;1.30;;;;;;;15.43;53.66;99044.13;106293;1253;60549;-56
2023/11/06 08:50:09;;;;;;;3.70;1.40;;;;;;;15.54;52.80;99048.61;108949;1253;58525;-56
2023/11/06 08:52:36;;;;;;;4.10;1.20;;;;;;;15.60;52.46;99052.38;106632;1258;64952;-55
2023/11/06 08:55:05;;;;;;;4.00;1.30;;;;;;;15.62;52.79;99059.13;107278;1254;61329;-56
2023/11/06 08:57:33;;;;;;;3.20;1.20;;;;;;;15.67;52.97;99061.09;109125;1253;63723;-56
2023/11/06 09:00:01;;;;;;;5.20;1.10;;;;;;;15.73;52.97;99064.52;109115;1254;58489;-56
2023/11/06 09:02:30;;;;;;;7.50;1.20;;;;;;;15.81;52.70;99067.91;105292;1258;60406;-54
2023/11/06 09:04:58;;;;;;;3.60;1.00;;;;;;;15.87;52.72;99068.19;105952;1254;66881;-55
2023/11/06 09:07:26;;;;;;;3.30;0.90;;;;;;;15.94;52.13;99066.48;108973;1254;72402;-55
2023/11/06 09:09:54;;;;;;;2.10;0.80;;;;;;;15.97;52.51;99065.42;108445;1254;62454;-55
2023/11/06 09:12:21;;;;;;;4.90;1.40;;;;;;;16.01;51.97;99070.02;105091;1254;60531;-56
2023/11/06 09:14:49;;;;;;;3.50;1.10;;;;;;;16.02;51.66;99067.72;106103;1253;60537;-56
2023/11/06 09:17:17;;;;;;;4.00;1.20;;;;;;;16.04;51.68;99066.98;105766;1253;63695;-54
2023/11/06 09:19:46;;;;;;;4.20;1.50;;;;;;;16.04;51.74;99066.95;105635;1254;63325;-55
2023/11/06 09:22:14;;;;;;;4.80;1.60;;;;;;;16.04;51.70;99062.66;106417;1254;64061;-57
2023/11/06 09:24:42;;;;;;;3.80;1.30;;;;;;;16.07;51.91;99071.86;107043;1259;61223;-55
2023/11/06 09:27:09;;;;;;;3.50;1.10;;;;;;;16.06;51.41;99076.92;106536;1253;60396;-58
2023/11/06 09:29:37;;;;;;;3.70;1.10;;;;;;;16.03;51.15;99085.29;106756;1255;63667;-55
2023/11/06 09:32:05;;;;;;;3.80;1.30;;;;;;;16.01;51.34;99067.34;106422;1254;61055;-54
2023/11/06 09:34:36;;;;;;;6.20;1.20;;;;;;;16.01;51.66;99071.25;105961;1254;63769;-55
2023/11/06 09:37:04;;;;;;;3.50;1.00;;;;;;;16.02;51.73;99075.34;105146;1259;60754;-54
2023/11/06 09:39:32;;;;;;;3.00;1.00;;;;;;;16.06;51.24;99078.96;106786;1258;62153;-55
2023/11/06 09:42:00;;;;;;;4.20;1.30;;;;;;;16.08;51.33;99087.04;105101;1254;63871;-55
2023/11/06 09:44:28;;;;;;;5.10;1.10;;;;;;;16.06;50.97;99094.31;105225;1254;61658;-59
2023/11/06 09:46:56;;;;;;;2.70;1.00;;;;;;;16.04;50.84;99082.30;105572;1259;62673;-56
2023/11/06 09:49:26;;;;;;;3.80;1.10;;;;;;;16.06;50.70;99096.71;105388;1260;60469;-57
2023/11/06 09:51:55;;;;;;;3.10;1.00;;;;;;;16.08;50.64;99090.36;107433;1254;60438;-55
2023/11/06 09:54:24;;;;;;;5.00;1.30;;;;;;;16.12;50.94;99080.12;108901;1253;67262;-57
2023/11/06 09:56:54;;;;;;;4.00;1.30;;;;;;;16.20;50.44;99091.34;109209;1254;61372;-55
2023/11/06 09:59:21;;;;;;;3.70;1.30;;;;;;;16.25;50.26;99090.38;109021;1254;64407;-54
2023/11/06 10:01:53;;;;;;;2.90;1.20;;;;;;;16.29;50.41;99087.73;107260;1255;60499;-50
2023/11/06 10:04:21;;;;;;;4.50;1.30;;;;;;;16.32;50.00;99093.70;109032;1254;59341;-51
2023/11/06 10:06:50;;;;;;;4.70;1.30;;;;;;;16.38;50.20;99087.86;108518;1254;65275;-52
2023/11/06 10:09:22;;;;;;;4.00;1.30;;;;;;;16.44;50.19;99096.48;109163;1253;60321;-57
2023/11/06 10:11:50;;;;;;;3.00;1.00;;;;;;;16.53;50.01;99107.08;108941;1253;72976;-56
2023/11/06 10:14:18;;;;;;;3.60;1.30;;;;;;;16.60;49.45;99109.75;105635;1254;60583;-54
2023/11/06 10:16:46;;;;;;;3.10;1.20;;;;;;;16.63;48.71;99117.36;106163;1253;60499;-56
2023/11/06 10:19:16;;;;;;;3.00;1.10;;;;;;;16.65;48.56;99124.49;106759;1253;64542;-56
2023/11/06 10:21:43;;;;;;;3.80;1.20;;;;;;;16.66;48.49;99122.55;105858;1257;60568;-56
2023/11/06 10:24:13;;;;;;;3.20;1.20;;;;;;;16.65;48.36;99130.66;105167;1255;64434;-57
2023/11/06 10:26:42;;;;;;;3.50;1.40;;;;;;;16.64;48.41;99145.19;106674;1252;60434;-59
2023/11/06 10:29:10;;;;;;;2.80;1.00;;;;;;;16.55;48.49;99147.17;108382;1252;60464;-57
2023/11/06 10:31:39;;;;;;;4.90;1.50;;;;;;;16.49;48.99;99139.41;109169;1253;67603;-55
2023/11/06 10:34:26;;;;;;;3.10;1.40;;;;;;;16.43;48.81;99155.38;109179;1253;72637;-57
2023/11/06 10:37:10;;;;;;;3.60;1.20;;;;;;;16.35;48.62;99153.14;108881;1253;64432;-56
2023/11/06 10:39:40;;;;;;;3.10;1.00;;;;;;;16.30;49.01;99157.58;109204;1253;60477;-55
2023/11/06 10:42:12;;;;;;;5.20;1.60;;;;;;;16.26;49.01;99152.19;109162;1253;58053;-57
2023/11/06 10:44:40;;;;;;;4.70;1.50;;;;;;;16.24;49.43;99154.34;105914;1257;67030;-56
2023/11/06 10:47:08;;;;;;;3.20;1.40;;;;;;;16.22;49.34;99159.02;106396;1253;63781;-56
2023/11/06 10:49:54;;;;;;;3.10;1.20;;;;;;;16.22;49.58;99162.20;105334;1254;66458;-56
2023/11/06 10:52:22;;;;;;;4.40;1.20;;;;;;;16.22;49.56;99165.05;105588;1258;60767;-56
2023/11/06 10:54:50;;;;;;;3.70;1.30;;;;;;;16.24;49.61;99167.27;105987;1253;60431;-59
2023/11/06 10:57:18;;;;;;;2.70;1.10;;;;;;;16.26;49.75;99174.19;105490;1257;64932;-55
2023/11/06 10:59:46;;;;;;;3.80;1.10;;;;;;;16.28;49.66;99178.71;105966;1253;61690;-54
2023/11/06 11:02:38;;;;;;;3.10;1.10;;;;;;;16.29;49.79;99174.35;106322;1254;62606;-51
2023/11/06 11:05:06;;;;;;;4.60;1.50;;;;;;;16.32;49.95;99176.17;107760;1253;60369;-54
2023/11/06 11:07:36;;;;;;;3.80;1.20;;;;;;;16.39;49.94;99186.21;105595;1253;61046;-51
2023/11/06 11:10:07;;;;;;;4.60;1.20;;;;;;;16.42;49.42;99181.70;105208;1257;76180;-50
2023/11/06 11:12:35;;;;;;;3.70;1.00;;;;;;;16.43;49.38;99175.89;107643;1254;60310;-53
2023/11/06 11:15:04;;;;;;;4.10;1.50;;;;;;;16.44;49.17;99184.59;105563;1255;66017;-52
2023/11/06 11:17:32;;;;;;;4.30;1.20;;;;;;;16.49;49.08;99180.09;109128;1253;58253;-55
2023/11/06 11:20:03;;;;;;;3.80;1.00;;;;;;;16.58;49.01;99182.78;109139;1253;58407;-53
2023/11/06 11:22:32;;;;;;;3.40;1.00;;;;;;;16.72;49.41;99178.29;107728;1255;75960;-52
2023/11/06 11:25:00;;;;;;;4.60;1.20;;;;;;;16.91;49.22;99179.55;105056;1254;63600;-53
2023/11/06 11:27:28;;;;;;;2.80;1.10;;;;;;;17.11;48.96;99185.54;105556;1254;64087;-54
2023/11/06 11:29:56;;;;;;;4.70;1.20;;;;;;;17.25;48.15;99197.33;105586;1257;60441;-54